Time;durP1;ratioP1;P1;durP2;ratioP2;P2;SDS_P1;SDS_P2;PMS_P1;PMS_P2;Temp;Humidity;BMP_temperature;BMP_pressure;BME280_temperature;BME280_humidity;BME280_pressure;Samples;Min_cycle;Max_cycle;Signal;HPM_P1;HPM_P2
2023/11/14 00:00:47;;;;;;;25.00;5.18;;;13.90;99.90;;;;;;4266275;27;20043;-54
2023/11/14 00:02:50;;;;;;;27.48;5.25;;;13.90;99.90;;;;;;4265837;27;20134;-54
2023/11/14 00:04:53;;;;;;;25.88;4.97;;;13.90;99.90;;;;;;4264933;27;20039;-53
2023/11/14 00:06:56;;;;;;;19.75;4.75;;;13.90;99.90;;;;;;4265914;27;20047;-54
2023/11/14 00:08:58;;;;;;;25.83;5.35;;;13.90;99.90;;;;;;4266249;27;20111;-53
2023/11/14 00:11:04;;;;;;;23.02;5.15;;;13.90;99.90;;;;;;4246602;27;20416;-53
2023/11/14 00:13:08;;;;;;;24.95;5.40;;;13.90;99.90;;;;;;4265903;27;20597;-53
2023/11/14 00:15:10;;;;;;;24.05;4.95;;;13.90;99.90;;;;;;4265795;27;20058;-54
2023/11/14 00:17:12;;;;;;;27.13;5.32;;;13.90;99.90;;;;;;4265414;27;20043;-53
2023/11/14 00:19:16;;;;;;;34.17;5.57;;;13.80;99.90;;;;;;4265817;27;20445;-54
2023/11/14 00:21:20;;;;;;;25.85;5.45;;;13.90;99.90;;;;;;4266048;27;20458;-54
2023/11/14 00:23:22;;;;;;;26.80;5.47;;;13.90;99.90;;;;;;4265952;27;20047;-54
2023/11/14 00:25:24;;;;;;;23.63;5.25;;;13.80;99.90;;;;;;4266062;27;20129;-53
2023/11/14 00:27:26;;;;;;;24.63;6.05;;;13.80;99.90;;;;;;4265906;27;20043;-55
2023/11/14 00:29:28;;;;;;;26.98;5.28;;;13.80;99.90;;;;;;4265804;27;20095;-54
2023/11/14 00:31:31;;;;;;;32.85;5.88;;;13.90;99.90;;;;;;4265471;27;20462;-55
2023/11/14 00:33:33;;;;;;;29.27;5.28;;;13.90;99.90;;;;;;4265633;27;20137;-54
2023/11/14 00:35:37;;;;;;;22.50;4.90;;;13.90;99.90;;;;;;4265447;27;20057;-54
2023/11/14 00:37:39;;;;;;;28.02;6.07;;;13.90;99.90;;;;;;4265441;27;20042;-54
2023/11/14 00:39:41;;;;;;;26.35;5.50;;;13.80;99.90;;;;;;4265557;27;20047;-54
2023/11/14 00:41:44;;;;;;;27.48;4.97;;;13.90;99.90;;;;;;4265426;27;20067;-53
2023/11/14 00:43:46;;;;;;;24.48;5.95;;;13.90;99.90;;;;;;4265291;27;20043;-54
2023/11/14 00:45:48;;;;;;;26.15;5.30;;;13.90;99.90;;;;;;4265041;27;20042;-57
2023/11/14 00:47:51;;;;;;;24.75;4.85;;;13.80;99.90;;;;;;4265245;27;20054;-57
2023/11/14 00:49:53;;;;;;;25.73;5.05;;;13.90;99.90;;;;;;4265370;27;20521;-55
2023/11/14 00:51:57;;;;;;;20.67;4.82;;;13.80;99.90;;;;;;4266117;27;20038;-53
2023/11/14 00:54:00;;;;;;;25.13;5.32;;;13.80;99.90;;;;;;4266253;27;20121;-57
2023/11/14 00:56:02;;;;;;;22.35;4.75;;;13.70;99.90;;;;;;4265437;27;20073;-53
2023/11/14 00:58:04;;;;;;;24.23;4.95;;;13.70;99.90;;;;;;4265274;27;20101;-54
2023/11/14 01:00:08;;;;;;;27.50;5.90;;;13.80;99.90;;;;;;4265499;27;20485;-55
2023/11/14 01:02:10;;;;;;;23.65;5.55;;;13.80;99.90;;;;;;4265159;27;20049;-54
2023/11/14 01:04:12;;;;;;;24.80;5.25;;;13.80;99.90;;;;;;4265370;27;20047;-54
2023/11/14 01:06:14;;;;;;;20.58;4.97;;;13.80;99.90;;;;;;4265073;27;20473;-54
2023/11/14 01:08:18;;;;;;;26.38;4.82;;;13.80;99.90;;;;;;4264954;27;20125;-54
2023/11/14 01:10:21;;;;;;;24.70;4.40;;;13.80;99.90;;;;;;4264890;27;20441;-54
2023/11/14 01:12:25;;;;;;;20.58;4.22;;;13.80;99.90;;;;;;4264891;27;20042;-54
2023/11/14 01:14:27;;;;;;;28.77;5.32;;;13.80;99.90;;;;;;4264858;27;20053;-54
2023/11/14 01:16:29;;;;;;;22.83;6.03;;;13.80;99.90;;;;;;4264797;27;20043;-53
2023/11/14 01:18:31;;;;;;;31.42;6.47;;;13.80;99.90;;;;;;4264654;27;20042;-54
2023/11/14 01:20:33;;;;;;;23.65;4.75;;;13.80;99.90;;;;;;4264872;27;20043;-54
2023/11/14 01:22:36;;;;;;;29.90;5.72;;;13.80;99.90;;;;;;4264473;27;20070;-55
2023/11/14 01:24:39;;;;;;;25.80;5.65;;;13.80;99.90;;;;;;4264811;27;20050;-56
2023/11/14 01:26:42;;;;;;;25.55;5.88;;;13.80;99.90;;;;;;4264780;27;20523;-55
2023/11/14 01:28:44;;;;;;;33.53;5.68;;;13.80;99.90;;;;;;4264535;27;20114;-54
2023/11/14 01:30:46;;;;;;;27.70;5.95;;;13.80;99.90;;;;;;4264923;27;20043;-55
2023/11/14 01:32:48;;;;;;;21.38;5.72;;;13.80;99.90;;;;;;4264975;27;20050;-54
2023/11/14 01:34:50;;;;;;;27.30;5.30;;;13.80;99.90;;;;;;4264703;27;20072;-54
2023/11/14 01:36:56;;;;;;;23.77;5.22;;;13.80;99.90;;;;;;4264762;27;20561;-55
2023/11/14 01:38:58;;;;;;;32.00;5.65;;;13.80;99.90;;;;;;4264542;27;20647;-54
2023/11/14 01:41:02;;;;;;;28.25;5.85;;;13.80;99.90;;;;;;4264627;27;20047;-55
2023/11/14 01:43:04;;;;;;;21.92;4.85;;;13.70;99.90;;;;;;4264507;27;20046;-53
2023/11/14 01:45:06;;;;;;;23.23;5.13;;;13.80;99.90;;;;;;4264654;27;20042;-53
2023/11/14 01:47:09;;;;;;;24.83;5.78;;;13.70;99.90;;;;;;4264655;27;20047;-53
2023/11/14 01:49:11;;;;;;;22.80;4.32;;;13.70;99.90;;;;;;4264506;27;20055;-52
2023/11/14 01:51:14;;;;;;;27.45;5.93;;;13.70;99.90;;;;;;4264817;27;20063;-55
2023/11/14 01:53:16;;;;;;;30.58;6.05;;;13.80;99.90;;;;;;4264532;27;20455;-53
2023/11/14 01:55:18;;;;;;;31.85;5.50;;;13.70;99.90;;;;;;4264515;27;20057;-57
2023/11/14 01:57:22;;;;;;;28.50;5.72;;;13.70;99.90;;;;;;4264288;27;20043;-54
2023/11/14 01:59:24;;;;;;;32.13;5.57;;;13.70;99.90;;;;;;4264918;27;20062;-54
2023/11/14 02:01:27;;;;;;;26.35;5.05;;;13.70;99.90;;;;;;4264423;27;20043;-54
2023/11/14 02:03:29;;;;;;;27.67;5.63;;;13.70;99.90;;;;;;4264262;27;20051;-55
2023/11/14 02:05:32;;;;;;;29.98;5.50;;;13.70;99.90;;;;;;4264293;27;20038;-54
2023/11/14 02:07:35;;;;;;;27.30;5.93;;;13.80;99.90;;;;;;4264296;27;20043;-53
2023/11/14 02:09:37;;;;;;;29.23;5.22;;;13.80;99.90;;;;;;4264381;27;20043;-54
2023/11/14 02:11:43;;;;;;;27.80;5.25;;;13.70;99.90;;;;;;4264513;27;20043;-54
2023/11/14 02:13:46;;;;;;;24.67;4.78;;;13.80;99.90;;;;;;4264032;27;20396;-54
2023/11/14 02:15:48;;;;;;;22.17;4.45;;;13.80;99.90;;;;;;4264218;27;20038;-57
2023/11/14 02:17:50;;;;;;;29.00;6.13;;;13.80;99.90;;;;;;4264368;27;20051;-54
2023/11/14 02:19:54;;;;;;;23.08;5.72;;;13.80;99.90;;;;;;4264194;27;20043;-54
2023/11/14 02:21:56;;;;;;;21.50;4.82;;;13.80;99.90;;;;;;4264333;27;20050;-54
2023/11/14 02:23:59;;;;;;;23.23;4.93;;;13.70;99.90;;;;;;4264407;27;20046;-54
2023/11/14 02:26:03;;;;;;;26.83;5.65;;;13.70;99.90;;;;;;4264444;27;20409;-54
2023/11/14 02:28:06;;;;;;;25.83;5.38;;;13.70;99.90;;;;;;4264204;27;20054;-55
2023/11/14 02:30:09;;;;;;;24.23;5.03;;;13.70;99.90;;;;;;4245819;28;20071;-53
2023/11/14 02:32:11;;;;;;;32.33;5.50;;;13.70;99.90;;;;;;4264417;27;20046;-54
2023/11/14 02:34:13;;;;;;;29.58;5.50;;;13.70;99.90;;;;;;4266232;27;20042;-54
2023/11/14 02:36:16;;;;;;;23.60;4.85;;;13.70;99.90;;;;;;4268014;27;20055;-54
2023/11/14 02:38:21;;;;;;;23.63;4.85;;;13.80;99.90;;;;;;4267747;27;20042;-54
2023/11/14 02:40:23;;;;;;;32.17;6.32;;;13.70;99.90;;;;;;4267568;27;20095;-54
2023/11/14 02:42:27;;;;;;;26.92;5.82;;;13.80;99.90;;;;;;4267385;27;20062;-54
2023/11/14 02:44:29;;;;;;;26.65;5.55;;;13.70;99.90;;;;;;4267809;27;20057;-55
2023/11/14 02:46:32;;;;;;;27.67;5.25;;;13.80;99.90;;;;;;4267237;27;20550;-54
2023/11/14 02:48:34;;;;;;;27.83;6.13;;;13.70;99.90;;;;;;4267379;27;20103;-54
2023/11/14 02:50:50;;;;;;;30.73;6.32;;;13.70;99.90;;;;;;4267303;27;20053;-54
2023/11/14 02:52:52;;;;;;;22.73;4.80;;;13.70;99.90;;;;;;4267184;27;20091;-54
2023/11/14 02:54:55;;;;;;;29.95;5.65;;;13.80;99.90;;;;;;4267051;27;20042;-53
2023/11/14 02:56:57;;;;;;;28.30;6.47;;;13.80;99.90;;;;;;4266958;27;20509;-53
2023/11/14 02:59:00;;;;;;;32.95;5.20;;;13.80;99.90;;;;;;4267394;27;20489;-52
2023/11/14 03:01:05;;;;;;;28.25;5.82;;;13.80;99.90;;;;;;4267194;27;20130;-55
2023/11/14 03:03:09;;;;;;;26.23;5.10;;;13.70;99.90;;;;;;4266833;27;20050;-54
2023/11/14 03:05:12;;;;;;;27.60;6.00;;;13.70;99.90;;;;;;4267051;27;20095;-53
2023/11/14 03:07:14;;;;;;;28.33;5.85;;;13.80;99.90;;;;;;4266830;27;20043;-55
2023/11/14 03:09:17;;;;;;;29.30;5.13;;;13.80;99.90;;;;;;4266834;27;20133;-54
2023/11/14 03:11:19;;;;;;;24.48;4.95;;;13.80;99.90;;;;;;4266592;27;20466;-57
2023/11/14 03:13:21;;;;;;;30.27;5.75;;;13.70;99.90;;;;;;4267050;27;20042;-53
2023/11/14 03:15:26;;;;;;;23.33;4.75;;;13.70;99.90;;;;;;4266723;27;20501;-53
2023/11/14 03:17:28;;;;;;;31.00;5.88;;;13.80;99.90;;;;;;4266763;27;20043;-54
2023/11/14 03:19:30;;;;;;;25.90;5.10;;;13.80;99.90;;;;;;4267109;27;20047;-53
2023/11/14 03:21:33;;;;;;;24.73;5.10;;;13.80;99.90;;;;;;4267014;27;20038;-55
2023/11/14 03:23:35;;;;;;;29.13;5.50;;;13.80;99.90;;;;;;4266579;27;20071;-54
2023/11/14 03:25:37;;;;;;;21.15;4.82;;;13.80;99.90;;;;;;4266241;27;20084;-54
2023/11/14 03:27:40;;;;;;;23.38;5.32;;;13.80;99.90;;;;;;4266683;27;20534;-54
2023/11/14 03:29:42;;;;;;;27.63;5.35;;;13.80;99.90;;;;;;4266493;27;20552;-54
2023/11/14 03:31:45;;;;;;;30.60;5.57;;;13.80;99.90;;;;;;4266661;27;20066;-54
2023/11/14 03:33:48;;;;;;;27.27;5.25;;;13.80;99.90;;;;;;4248551;27;20423;-56
2023/11/14 03:35:50;;;;;;;21.55;4.68;;;13.80;99.90;;;;;;4267412;27;20056;-58
2023/11/14 03:37:52;;;;;;;28.00;5.55;;;13.80;99.90;;;;;;4266501;27;20043;-53
2023/11/14 03:39:55;;;;;;;22.63;4.63;;;13.90;99.90;;;;;;4266330;27;20042;-53
2023/11/14 03:41:57;;;;;;;20.27;4.80;;;13.90;99.90;;;;;;4266703;27;20076;-54
2023/11/14 03:43:59;;;;;;;26.38;5.22;;;13.90;99.90;;;;;;4265986;27;20042;-55
2023/11/14 03:46:01;;;;;;;33.03;6.65;;;13.90;99.90;;;;;;4266059;27;20042;-54
2023/11/14 03:48:05;;;;;;;32.78;4.85;;;13.90;99.90;;;;;;4266547;27;20055;-53
2023/11/14 03:50:07;;;;;;;28.77;5.95;;;13.90;99.90;;;;;;4266446;27;20481;-54
2023/11/14 03:52:11;;;;;;;26.63;5.63;;;13.90;99.90;;;;;;4266259;27;20074;-54
2023/11/14 03:54:13;;;;;;;29.40;6.15;;;14.00;99.90;;;;;;4265624;27;20039;-53
2023/11/14 03:56:15;;;;;;;25.52;4.78;;;13.90;99.90;;;;;;4265936;27;20039;-53
2023/11/14 03:58:17;;;;;;;27.90;5.07;;;13.90;99.90;;;;;;4266234;27;20062;-56
2023/11/14 04:00:20;;;;;;;23.10;4.97;;;14.00;99.90;;;;;;4266223;27;20077;-53
2023/11/14 04:02:22;;;;;;;29.10;5.55;;;13.90;99.90;;;;;;4265900;27;20093;-53
2023/11/14 04:04:25;;;;;;;25.40;5.65;;;14.00;99.90;;;;;;4247938;27;20411;-53
2023/11/14 04:06:28;;;;;;;24.92;5.45;;;14.00;99.90;;;;;;4265781;27;20039;-55
2023/11/14 04:08:30;;;;;;;29.40;6.18;;;14.00;99.90;;;;;;4265478;27;20135;-54
2023/11/14 04:10:32;;;;;;;20.95;5.00;;;14.00;99.90;;;;;;4266234;27;20047;-54
2023/11/14 04:12:37;;;;;;;32.00;5.53;;;14.00;99.90;;;;;;4265766;27;20046;-55
2023/11/14 04:14:40;;;;;;;20.52;4.43;;;13.90;99.90;;;;;;4265979;27;20035;-55
2023/11/14 04:16:42;;;;;;;25.42;4.55;;;13.90;99.90;;;;;;4266130;27;20058;-55
2023/11/14 04:18:44;;;;;;;29.30;5.25;;;13.90;99.90;;;;;;4265919;27;20133;-54
2023/11/14 04:20:48;;;;;;;25.38;5.47;;;13.90;99.90;;;;;;4266030;27;20117;-53
2023/11/14 04:22:50;;;;;;;31.20;6.10;;;13.80;99.90;;;;;;4265525;27;20500;-55
2023/11/14 04:24:52;;;;;;;29.38;5.75;;;13.80;99.90;;;;;;4265856;27;20542;-54
2023/11/14 04:26:54;;;;;;;27.25;6.00;;;13.80;99.90;;;;;;4265970;27;20046;-55
2023/11/14 04:28:56;;;;;;;32.67;5.30;;;13.80;99.90;;;;;;4266095;27;20060;-54
2023/11/14 04:30:58;;;;;;;25.55;6.50;;;13.80;99.90;;;;;;4265789;27;20047;-53
2023/11/14 04:33:00;;;;;;;23.52;4.38;;;13.80;99.90;;;;;;4265883;27;20509;-53
2023/11/14 04:35:03;;;;;;;26.88;5.53;;;13.70;99.90;;;;;;4265484;27;20034;-55
2023/11/14 04:37:09;;;;;;;24.90;5.13;;;13.70;99.90;;;;;;4265264;27;20533;-55
2023/11/14 04:39:11;;;;;;;26.08;5.47;;;13.70;99.90;;;;;;4265237;27;20129;-53
2023/11/14 04:41:15;;;;;;;21.40;5.30;;;13.70;99.90;;;;;;4265368;27;20074;-54
2023/11/14 04:43:18;;;;;;;25.90;5.38;;;13.70;99.90;;;;;;4265658;27;20129;-53
2023/11/14 04:45:21;;;;;;;27.60;5.22;;;13.70;99.90;;;;;;4247465;27;20484;-54
2023/11/14 04:47:25;;;;;;;25.55;5.13;;;13.70;99.90;;;;;;4248350;27;20054;-54
2023/11/14 04:49:27;;;;;;;28.77;5.07;;;13.70;99.90;;;;;;4248400;27;20043;-55
2023/11/14 04:51:29;;;;;;;24.08;5.15;;;13.70;99.90;;;;;;4248142;27;20047;-54
2023/11/14 04:53:33;;;;;;;23.30;5.15;;;13.60;99.90;;;;;;4248072;27;20047;-54
2023/11/14 04:55:35;;;;;;;29.50;5.65;;;13.70;99.90;;;;;;4247744;27;20047;-54
2023/11/14 04:57:39;;;;;;;26.90;4.65;;;13.60;99.90;;;;;;4248175;27;20513;-55
2023/11/14 04:59:41;;;;;;;26.08;5.32;;;13.60;99.90;;;;;;4248099;27;20055;-54
2023/11/14 05:01:43;;;;;;;25.05;4.65;;;13.60;99.90;;;;;;4248267;27;20521;-55
2023/11/14 05:03:45;;;;;;;35.50;5.45;;;13.50;99.90;;;;;;4247713;27;20053;-54
2023/11/14 05:05:48;;;;;;;24.50;5.28;;;13.50;99.90;;;;;;4248138;27;20433;-54
2023/11/14 05:07:50;;;;;;;25.55;5.65;;;13.60;99.90;;;;;;4248056;27;20051;-54
2023/11/14 05:09:54;;;;;;;30.45;5.32;;;13.50;99.90;;;;;;4248011;27;20076;-54
2023/11/14 05:11:56;;;;;;;25.85;4.82;;;13.50;99.90;;;;;;4248735;27;20043;-54
2023/11/14 05:13:58;;;;;;;26.65;5.28;;;13.60;99.90;;;;;;4230908;28;20456;-55
2023/11/14 05:16:01;;;;;;;25.30;4.95;;;13.60;99.90;;;;;;4247879;27;20054;-54
2023/11/14 05:18:21;;;;;;;24.85;5.03;;;13.60;99.90;;;;;;4249172;27;20043;-54
2023/11/14 05:20:23;;;;;;;25.42;5.28;;;13.70;99.90;;;;;;4248636;27;20046;-56
2023/11/14 05:22:25;;;;;;;24.10;5.15;;;13.70;99.90;;;;;;4230649;28;20108;-54
2023/11/14 05:24:28;;;;;;;27.38;5.00;;;13.60;99.90;;;;;;4248286;27;20039;-55
2023/11/14 05:26:31;;;;;;;17.88;4.82;;;13.60;99.90;;;;;;4247884;27;20039;-54
2023/11/14 05:28:36;;;;;;;27.85;5.40;;;13.60;99.90;;;;;;4229603;28;20052;-55
2023/11/14 05:30:38;;;;;;;20.85;5.03;;;13.50;99.90;;;;;;4229350;28;20533;-54
2023/11/14 05:32:40;;;;;;;25.55;4.88;;;13.60;99.90;;;;;;4247556;27;20044;-54
2023/11/14 05:34:43;;;;;;;24.92;5.60;;;13.60;99.90;;;;;;4247651;27;20371;-54
2023/11/14 05:36:45;;;;;;;27.40;4.78;;;13.60;99.90;;;;;;4247724;27;20043;-54
2023/11/14 05:38:48;;;;;;;21.38;5.18;;;13.60;99.90;;;;;;4247821;27;20082;-54
2023/11/14 05:40:51;;;;;;;24.50;4.53;;;13.70;99.90;;;;;;4248165;27;20047;-53
2023/11/14 05:42:56;;;;;;;28.77;4.70;;;13.70;99.90;;;;;;4230013;28;20105;-54
2023/11/14 05:44:58;;;;;;;20.10;4.60;;;13.80;99.90;;;;;;4247586;27;20047;-54
2023/11/14 05:47:02;;;;;;;21.58;4.03;;;13.70;99.90;;;;;;4260968;27;20066;-57
2023/11/14 05:49:04;;;;;;;25.13;4.47;;;13.80;99.90;;;;;;4246497;28;20039;-55
2023/11/14 05:51:06;;;;;;;23.17;5.00;;;13.70;99.90;;;;;;4264120;27;20050;-54
2023/11/14 05:53:08;;;;;;;23.85;5.40;;;13.70;99.90;;;;;;4264785;27;20066;-55
2023/11/14 05:55:11;;;;;;;27.27;5.03;;;13.70;99.90;;;;;;4264581;27;20060;-54
2023/11/14 05:57:13;;;;;;;27.83;5.35;;;13.80;99.90;;;;;;4246147;28;20067;-55
2023/11/14 05:59:16;;;;;;;20.70;5.18;;;13.80;99.90;;;;;;4264579;27;20465;-54
2023/11/14 06:01:19;;;;;;;19.58;4.50;;;13.80;99.90;;;;;;4264458;27;21361;-55
2023/11/14 06:03:21;;;;;;;19.63;4.95;;;13.80;99.90;;;;;;4264332;27;20066;-55
2023/11/14 06:05:24;;;;;;;24.67;4.18;;;13.90;99.90;;;;;;4264064;27;20043;-54
2023/11/14 06:07:26;;;;;;;18.23;4.30;;;13.90;99.90;;;;;;4265335;27;20047;-53
2023/11/14 06:09:29;;;;;;;24.88;5.30;;;13.90;99.90;;;;;;4268112;27;20066;-58
2023/11/14 06:11:31;;;;;;;21.45;4.90;;;13.90;99.90;;;;;;4268450;27;20074;-53
2023/11/14 06:13:33;;;;;;;16.63;4.22;;;14.00;99.90;;;;;;4268038;27;20074;-54
2023/11/14 06:15:37;;;;;;;23.50;4.65;;;13.90;99.90;;;;;;4268462;27;20051;-58
2023/11/14 06:17:39;;;;;;;26.50;4.07;;;13.90;99.90;;;;;;4268912;27;20035;-53
2023/11/14 06:19:41;;;;;;;18.55;4.53;;;13.90;99.90;;;;;;4249431;27;20047;-54
2023/11/14 06:21:43;;;;;;;23.63;4.93;;;13.90;99.90;;;;;;4267864;27;20126;-55
2023/11/14 06:23:46;;;;;;;22.33;4.70;;;13.90;99.90;;;;;;4268060;27;20067;-54
2023/11/14 06:25:48;;;;;;;19.77;3.90;;;14.00;99.90;;;;;;4268011;27;20039;-54
2023/11/14 06:27:50;;;;;;;26.15;4.63;;;14.00;99.90;;;;;;4267939;27;20042;-54
2023/11/14 06:29:53;;;;;;;22.58;4.40;;;14.00;99.90;;;;;;4267737;27;20444;-53
2023/11/14 06:31:56;;;;;;;20.65;4.53;;;14.00;99.90;;;;;;4268494;27;20091;-54
2023/11/14 06:33:58;;;;;;;17.33;4.50;;;14.00;99.90;;;;;;4267285;27;20070;-54
2023/11/14 06:36:01;;;;;;;21.75;4.53;;;13.90;99.90;;;;;;4267755;27;20047;-59
2023/11/14 06:38:03;;;;;;;23.52;4.38;;;14.00;99.90;;;;;;4267664;27;20426;-55
2023/11/14 06:40:07;;;;;;;16.00;3.70;;;14.00;99.90;;;;;;4267387;27;20553;-55
2023/11/14 06:42:10;;;;;;;23.20;4.55;;;14.00;99.90;;;;;;4267761;27;20497;-58
2023/11/14 06:44:12;;;;;;;25.55;5.00;;;14.00;99.90;;;;;;4267426;27;20095;-54
2023/11/14 06:46:14;;;;;;;22.52;4.53;;;13.90;99.90;;;;;;4267725;27;20078;-53
2023/11/14 06:48:18;;;;;;;20.73;4.68;;;13.90;99.90;;;;;;4267306;27;20043;-54
2023/11/14 06:50:21;;;;;;;24.75;4.68;;;13.90;99.90;;;;;;4249150;27;20050;-55
2023/11/14 06:52:38;;;;;;;23.08;4.65;;;13.90;99.90;;;;;;4267420;27;20038;-54
2023/11/14 06:54:40;;;;;;;20.98;4.72;;;13.90;99.90;;;;;;4267413;27;20386;-53
2023/11/14 06:56:43;;;;;;;22.40;4.82;;;13.80;99.90;;;;;;4267638;27;20050;-54
2023/11/14 06:58:45;;;;;;;16.45;4.00;;;13.90;99.90;;;;;;4267812;27;20043;-53
2023/11/14 07:00:47;;;;;;;19.08;3.80;;;13.90;99.90;;;;;;4267452;27;20047;-53
2023/11/14 07:02:49;;;;;;;20.63;4.78;;;13.90;99.90;;;;;;4267157;27;20051;-53
2023/11/14 07:04:54;;;;;;;24.70;4.93;;;13.90;99.90;;;;;;4267450;27;20143;-55
2023/11/14 07:06:56;;;;;;;;;;;13.90;99.90;;;;;;4268147;27;20082;-54
2023/11/14 07:08:58;;;;;;;21.52;4.38;;;13.80;99.90;;;;;;4268855;27;19919;-56
2023/11/14 07:11:00;;;;;;;18.95;4.38;;;13.80;99.90;;;;;;4250336;27;20054;-54
2023/11/14 07:13:03;;;;;;;26.10;4.53;;;13.90;99.90;;;;;;4269015;27;20049;-55
2023/11/14 07:15:06;;;;;;;25.88;4.90;;;13.90;99.90;;;;;;4268869;27;20043;-55
2023/11/14 07:17:09;;;;;;;27.60;4.88;;;13.90;99.90;;;;;;4268289;27;20115;-57
2023/11/14 07:19:11;;;;;;;24.48;4.82;;;14.00;99.90;;;;;;4267996;27;20055;-63
2023/11/14 07:21:15;;;;;;;19.10;4.38;;;14.00;99.90;;;;;;4269021;27;20042;-58
2023/11/14 07:23:18;;;;;;;24.73;4.27;;;14.00;99.90;;;;;;4267734;27;20121;-59
2023/11/14 07:25:20;;;;;;;20.80;4.57;;;14.00;99.90;;;;;;4268651;27;20082;-56
2023/11/14 07:27:22;;;;;;;17.33;3.80;;;14.00;99.90;;;;;;4268887;27;20051;-55
2023/11/14 07:29:24;;;;;;;22.63;4.40;;;14.00;99.90;;;;;;4268961;27;20427;-63
2023/11/14 07:31:26;;;;;;;25.75;4.13;;;13.90;99.90;;;;;;4268776;27;20053;-59
2023/11/14 07:33:28;;;;;;;15.93;3.63;;;13.90;99.90;;;;;;4268576;27;20060;-60
2023/11/14 07:35:30;;;;;;;19.65;4.13;;;13.90;99.90;;;;;;4250276;27;20039;-57
2023/11/14 07:37:34;;;;;;;24.63;4.63;;;13.90;99.90;;;;;;4268634;27;20042;-55
2023/11/14 07:39:36;;;;;;;23.00;4.05;;;13.90;99.90;;;;;;4249361;27;20040;-54
2023/11/14 07:41:38;;;;;;;25.05;4.35;;;13.90;99.90;;;;;;4266533;27;20121;-54
2023/11/14 07:43:41;;;;;;;19.98;4.25;;;13.90;99.90;;;;;;4266761;27;20133;-59
2023/11/14 07:45:43;;;;;;;17.10;4.10;;;13.90;99.90;;;;;;4266213;27;20125;-54
2023/11/14 07:47:45;;;;;;;16.50;4.18;;;13.90;99.90;;;;;;4266585;27;20134;-53
2023/11/14 07:49:47;;;;;;;23.42;4.55;;;13.90;99.90;;;;;;4266872;27;20062;-54
2023/11/14 07:51:49;;;;;;;22.67;3.97;;;13.80;99.90;;;;;;4266742;27;20042;-54
2023/11/14 07:53:53;;;;;;;20.67;3.83;;;13.90;99.90;;;;;;4266646;27;20047;-53
2023/11/14 07:55:56;;;;;;;18.83;4.00;;;13.90;99.90;;;;;;4266891;27;20047;-53
2023/11/14 07:57:58;;;;;;;20.98;4.18;;;13.90;99.90;;;;;;4266702;27;20107;-54
2023/11/14 08:00:00;;;;;;;23.48;4.40;;;13.90;99.90;;;;;;4265905;27;20129;-54
2023/11/14 08:02:02;;;;;;;23.35;4.00;;;13.90;99.90;;;;;;4266358;27;20158;-55
2023/11/14 08:04:07;;;;;;;26.10;4.75;;;14.00;99.90;;;;;;4248090;27;20102;-54
2023/11/14 08:06:09;;;;;;;19.25;4.25;;;14.00;99.90;;;;;;4267491;27;20473;-56
2023/11/14 08:08:13;;;;;;;20.70;4.78;;;14.00;99.90;;;;;;4266239;27;20053;-55
2023/11/14 08:10:17;;;;;;;24.00;4.38;;;14.10;99.90;;;;;;4266340;27;20055;-54
2023/11/14 08:12:19;;;;;;;20.63;4.18;;;14.10;99.90;;;;;;4247615;27;20170;-54
2023/11/14 08:14:21;;;;;;;17.52;3.50;;;14.10;99.90;;;;;;4265925;27;20126;-54
2023/11/14 08:16:23;;;;;;;20.55;4.30;;;14.10;99.90;;;;;;4266162;27;20046;-54
2023/11/14 08:18:26;;;;;;;19.50;4.15;;;14.10;99.90;;;;;;4266038;27;20070;-54
2023/11/14 08:20:28;;;;;;;17.90;4.32;;;14.10;99.90;;;;;;4266025;27;20455;-53
2023/11/14 08:22:30;;;;;;;17.40;4.18;;;14.20;99.90;;;;;;4266133;27;20126;-54
2023/11/14 08:24:33;;;;;;;26.83;4.18;;;14.10;99.90;;;;;;4266058;27;20059;-54
2023/11/14 08:26:36;;;;;;;19.73;3.97;;;14.10;99.90;;;;;;4265933;27;20450;-53
2023/11/14 08:28:39;;;;;;;20.92;4.70;;;14.00;99.90;;;;;;4265949;27;20042;-53
2023/11/14 08:30:42;;;;;;;18.50;3.97;;;14.10;99.90;;;;;;4264893;27;20050;-54
2023/11/14 08:32:45;;;;;;;22.90;4.78;;;14.10;99.90;;;;;;4265817;27;20039;-54
2023/11/14 08:34:49;;;;;;;17.30;3.50;;;14.10;99.90;;;;;;4265768;27;20046;-55
2023/11/14 08:36:51;;;;;;;18.27;2.90;;;14.10;99.90;;;;;;4265759;27;20050;-53
2023/11/14 08:38:53;;;;;;;15.23;3.30;;;14.10;99.90;;;;;;4265729;27;20042;-55
2023/11/14 08:40:56;;;;;;;22.17;4.18;;;14.20;99.90;;;;;;4265431;27;20472;-56
2023/11/14 08:43:00;;;;;;;16.30;3.65;;;14.20;99.90;;;;;;4247306;27;20050;-54
2023/11/14 08:45:02;;;;;;;21.40;4.78;;;14.20;99.90;;;;;;4264968;27;20054;-51
2023/11/14 08:47:05;;;;;;;24.35;4.32;;;14.20;99.90;;;;;;4265330;27;20054;-52
2023/11/14 08:49:07;;;;;;;18.33;3.53;;;14.20;99.90;;;;;;4265187;27;20386;-52
2023/11/14 08:51:10;;;;;;;16.98;3.42;;;14.20;99.90;;;;;;4265314;27;20053;-52
2023/11/14 08:53:13;;;;;;;24.15;4.25;;;14.20;99.90;;;;;;4265395;27;20043;-52
2023/11/14 08:55:16;;;;;;;16.88;4.07;;;14.20;99.90;;;;;;4265360;27;20112;-53
2023/11/14 08:57:20;;;;;;;17.88;4.43;;;14.20;99.90;;;;;;4265454;27;20050;-52
2023/11/14 08:59:23;;;;;;;17.00;3.92;;;14.20;99.90;;;;;;4265306;27;20063;-52
2023/11/14 09:01:25;;;;;;;16.75;3.70;;;14.20;99.90;;;;;;4265888;27;20074;-52
2023/11/14 09:03:27;;;;;;;24.73;3.83;;;14.20;99.90;;;;;;4265399;27;20074;-58
2023/11/14 09:05:30;;;;;;;16.27;3.55;;;14.20;99.90;;;;;;4265891;27;20447;-52
2023/11/14 09:07:32;;;;;;;15.48;3.70;;;14.20;99.90;;;;;;4265489;27;20047;-52
2023/11/14 09:09:34;;;;;;;16.90;3.45;;;14.20;99.90;;;;;;4265764;27;20038;-58
2023/11/14 09:11:38;;;;;;;20.77;5.15;;;14.20;99.90;;;;;;4265562;27;20046;-55
2023/11/14 09:13:40;;;;;;;18.08;3.70;;;14.20;99.90;;;;;;4265193;27;20104;-55
2023/11/14 09:15:43;;;;;;;20.30;3.35;;;14.30;99.90;;;;;;4265123;27;20061;-54
2023/11/14 09:17:45;;;;;;;14.73;3.20;;;14.30;99.90;;;;;;4246902;27;20096;-51
2023/11/14 09:19:55;;;;;;;19.38;4.30;;;14.30;99.90;;;;;;4264921;27;20042;-53
2023/11/14 09:21:58;;;;;;;17.08;3.95;;;14.30;99.90;;;;;;4265257;27;20126;-55
2023/11/14 09:24:00;;;;;;;21.45;4.35;;;14.30;99.90;;;;;;4246727;27;20112;-53
2023/11/14 09:26:05;;;;;;;20.90;4.38;;;14.30;99.90;;;;;;4265169;27;20057;-55
2023/11/14 09:28:07;;;;;;;17.05;3.17;;;14.30;99.90;;;;;;4264679;27;20513;-53
2023/11/14 09:30:10;;;;;;;16.48;3.60;;;14.30;99.90;;;;;;4264798;27;20042;-55
2023/11/14 09:32:14;;;;;;;16.77;3.75;;;14.30;99.90;;;;;;4264787;27;20046;-54
2023/11/14 09:34:16;;;;;;;20.55;3.92;;;14.30;99.90;;;;;;4264990;27;20042;-52
2023/11/14 09:36:18;;;;;;;18.20;3.30;;;14.40;99.90;;;;;;4264660;27;20563;-52
2023/11/14 09:38:22;;;;;;;14.98;2.88;;;14.40;99.90;;;;;;4265378;27;20451;-59
2023/11/14 09:40:25;;;;;;;15.80;3.67;;;14.40;99.90;;;;;;4265418;27;20051;-52
2023/11/14 09:42:27;;;;;;;20.25;3.83;;;14.30;99.90;;;;;;4264492;27;20038;-53
2023/11/14 09:44:29;;;;;;;12.00;2.92;;;14.30;99.90;;;;;;4264896;27;20091;-52
2023/11/14 09:46:38;;;;;;;15.13;3.72;;;14.30;99.90;;;;;;4247034;27;20514;-53
2023/11/14 09:48:43;;;;;;;24.05;3.97;;;14.30;99.90;;;;;;4264896;27;20076;-55
2023/11/14 09:50:47;;;;;;;;;;;14.40;99.90;;;;;;4265236;27;20047;-54
2023/11/14 09:52:50;;;;;;;15.98;3.70;;;14.30;99.90;;;;;;4264934;27;19925;-54
2023/11/14 09:54:52;;;;;;;21.50;3.97;;;14.30;99.90;;;;;;4264594;27;20074;-55
2023/11/14 09:56:55;;;;;;;25.05;4.43;;;14.30;99.90;;;;;;4264135;27;20047;-55
2023/11/14 09:58:58;;;;;;;16.42;3.70;;;14.30;99.90;;;;;;4264661;27;20047;-55
2023/11/14 10:01:00;;;;;;;16.55;3.72;;;14.30;99.90;;;;;;4264731;27;20066;-55
2023/11/14 10:03:03;;;;;;;20.60;4.18;;;14.20;99.90;;;;;;4264628;27;20544;-55
2023/11/14 10:05:08;;;;;;;15.77;3.65;;;14.30;99.90;;;;;;4264691;27;20046;-54
2023/11/14 10:07:20;;;;;;;14.75;2.97;;;14.30;99.90;;;;;;4264535;27;20049;-55
2023/11/14 10:09:23;;;;;;;16.65;3.65;;;14.40;99.90;;;;;;4264792;27;20046;-54
2023/11/14 10:11:40;;;;;;;15.00;3.88;;;14.40;99.90;;;;;;4264185;27;20486;-55
2023/11/14 10:14:04;;;;;;;13.50;2.90;;;14.40;99.90;;;;;;4264765;27;20054;-55
2023/11/14 10:16:14;;;;;;;19.23;4.23;;;14.40;99.90;;;;;;4264583;27;20066;-54
2023/11/14 10:18:31;;;;;;;23.10;4.22;;;14.40;99.90;;;;;;4264665;27;20133;-55
2023/11/14 10:20:39;;;;;;;15.00;3.70;;;14.30;99.90;;;;;;4264622;27;20054;-55
2023/11/14 10:22:48;;;;;;;17.88;3.47;;;14.30;99.90;;;;;;4264293;27;20070;-54
2023/11/14 10:24:50;;;;;;;14.95;3.92;;;14.30;99.90;;;;;;4264191;27;20387;-55
2023/11/14 10:26:53;;;;;;;16.48;3.53;;;14.30;99.90;;;;;;4264469;27;20138;-54
2023/11/14 10:29:00;;;;;;;13.85;3.35;;;14.40;99.90;;;;;;4264307;27;20043;-55
2023/11/14 10:31:03;;;;;;;16.10;4.25;;;14.30;99.90;;;;;;4264418;27;20053;-56
2023/11/14 10:33:18;;;;;;;16.65;3.63;;;14.30;99.90;;;;;;4264498;27;20050;-54